Time;durP1;ratioP1;P1;durP2;ratioP2;P2;SDS_P1;SDS_P2;PMS_P1;PMS_P2;Temp;Humidity;BMP_temperature;BMP_pressure;BME280_temperature;BME280_humidity;BME280_pressure;Samples;Min_cycle;Max_cycle;Signal;HPM_P1;HPM_P2
2021/11/25 00:01:35;;;;;;;11.70;3.93;;;6.10;99.90;;;;;;5051365;28;20069;-89
2021/11/25 00:04:01;;;;;;;7.57;3.60;;;6.10;99.90;;;;;;5051289;28;20029;-89
2021/11/25 00:06:30;;;;;;;9.95;3.80;;;6.10;99.90;;;;;;5052339;28;20029;-89
2021/11/25 00:08:56;;;;;;;8.23;3.37;;;6.10;99.90;;;;;;5050659;28;20036;-89
2021/11/25 00:11:21;;;;;;;6.83;3.67;;;6.10;99.90;;;;;;5034439;28;20033;-88
2021/11/25 00:13:47;;;;;;;7.80;3.80;;;6.10;99.90;;;;;;5051153;28;20044;-89
2021/11/25 00:19:32;;;;;;;7.10;3.63;;;6.10;99.90;;;;;;5541835;22;20042;-89
2021/11/25 00:21:58;;;;;;;6.38;3.88;;;6.10;99.90;;;;;;5012514;28;20095;-88
2021/11/25 00:24:24;;;;;;;8.17;3.90;;;6.20;99.90;;;;;;5014592;28;20042;-88
2021/11/25 00:26:50;;;;;;;7.43;3.67;;;6.10;99.90;;;;;;5014753;28;20053;-88
2021/11/25 00:29:15;;;;;;;6.60;4.00;;;6.10;99.90;;;;;;5014345;28;20473;-88
2021/11/25 00:31:41;;;;;;;7.63;3.37;;;6.10;99.90;;;;;;5015252;28;20056;-88
2021/11/25 00:34:07;;;;;;;6.67;3.67;;;6.10;99.90;;;;;;5021848;23;20044;-87
2021/11/25 00:36:33;;;;;;;7.60;4.07;;;6.20;99.90;;;;;;5014436;28;20493;-87
2021/11/25 00:38:58;;;;;;;7.00;3.93;;;6.20;99.90;;;;;;5014065;28;20029;-87
2021/11/25 00:41:24;;;;;;;8.13;4.17;;;6.20;99.90;;;;;;5014410;28;20123;-87
2021/11/25 00:43:50;;;;;;;8.67;4.73;;;6.20;99.90;;;;;;5014726;28;20040;-87
2021/11/25 00:46:16;;;;;;;7.50;4.50;;;6.30;99.90;;;;;;4998118;28;20030;-86
2021/11/25 00:48:42;;;;;;;8.03;4.40;;;6.20;99.90;;;;;;5013141;28;20056;-87
2021/11/25 00:51:08;;;;;;;9.03;4.67;;;6.20;99.90;;;;;;4997875;28;20037;-87
2021/11/25 00:53:34;;;;;;;8.37;4.47;;;6.20;99.90;;;;;;5014308;28;20043;-87
2021/11/25 00:55:59;;;;;;;9.70;4.73;;;6.20;99.90;;;;;;5014224;28;20030;-87
2021/11/25 00:58:25;;;;;;;8.17;4.37;;;6.20;99.90;;;;;;4997674;28;20072;-87
2021/11/25 01:00:51;;;;;;;8.63;4.83;;;6.20;99.90;;;;;;4997907;28;20030;-87
2021/11/25 01:03:17;;;;;;;7.67;4.50;;;6.20;99.90;;;;;;4997832;28;20034;-86
2021/11/25 01:05:42;;;;;;;8.67;5.40;;;6.20;99.90;;;;;;4997889;28;20049;-87
2021/11/25 01:08:08;;;;;;;9.57;5.13;;;6.20;99.90;;;;;;4997324;28;20040;-87
2021/11/25 01:10:34;;;;;;;9.30;5.07;;;6.20;99.90;;;;;;4997870;28;20034;-87
2021/11/25 01:13:00;;;;;;;8.83;4.67;;;6.10;99.90;;;;;;5014178;28;20410;-86
2021/11/25 01:15:29;;;;;;;10.27;5.53;;;6.20;99.90;;;;;;4997762;28;20429;-87
2021/11/25 01:18:11;;;;;;;8.73;5.18;;;6.10;99.90;;;;;;5013542;28;20470;-87
2021/11/25 01:20:38;;;;;;;9.07;4.80;;;6.10;99.90;;;;;;4997703;28;20037;-86
2021/11/25 01:23:07;;;;;;;8.43;5.00;;;6.10;99.90;;;;;;5013931;28;20026;-87
2021/11/25 01:25:33;;;;;;;8.02;4.93;;;6.10;99.90;;;;;;4997698;28;20445;-86
2021/11/25 01:27:59;;;;;;;9.67;5.00;;;6.10;99.90;;;;;;5013334;28;20033;-87
2021/11/25 01:30:25;;;;;;;8.30;5.00;;;6.00;99.90;;;;;;4997692;28;20033;-86
2021/11/25 01:32:51;;;;;;;14.50;5.50;;;6.00;99.90;;;;;;5013670;28;20095;-86
2021/11/25 01:35:17;;;;;;;11.23;6.03;;;6.10;99.90;;;;;;5013979;28;20029;-85
2021/11/25 01:37:43;;;;;;;10.67;6.10;;;6.00;99.90;;;;;;4997135;28;20037;-86
2021/11/25 01:40:13;;;;;;;9.67;5.93;;;5.90;99.90;;;;;;5013900;28;20025;-87
2021/11/25 01:42:43;;;;;;;10.90;5.70;;;6.00;99.90;;;;;;5013993;28;20033;-87
2021/11/25 01:45:10;;;;;;;;;;;6.00;99.90;;;;;;5014312;28;20087;-87
2021/11/25 01:47:36;;;;;;;8.60;5.43;;;6.00;99.90;;;;;;5013268;28;19909;-86
2021/11/25 01:50:02;;;;;;;8.60;5.10;;;5.90;99.90;;;;;;4997353;28;20081;-87
2021/11/25 01:52:28;;;;;;;9.80;5.43;;;6.00;99.90;;;;;;5013790;28;20033;-87
2021/11/25 01:54:54;;;;;;;13.90;5.57;;;6.00;99.90;;;;;;5013977;28;20036;-87
2021/11/25 01:57:20;;;;;;;9.93;5.30;;;6.00;99.90;;;;;;4997321;28;20056;-86
2021/11/25 01:59:45;;;;;;;9.27;5.30;;;6.00;99.90;;;;;;5014585;28;20033;-87
2021/11/25 02:02:13;;;;;;;10.00;5.40;;;5.90;99.90;;;;;;5000828;28;20540;-86
2021/11/25 02:04:38;;;;;;;8.23;5.10;;;6.00;99.90;;;;;;5000763;28;20040;-87
2021/11/25 02:07:04;;;;;;;9.50;5.43;;;6.00;99.90;;;;;;5017324;28;20038;-86
2021/11/25 02:09:30;;;;;;;8.70;5.57;;;6.00;99.90;;;;;;5000222;28;20129;-86
2021/11/25 02:11:56;;;;;;;10.80;6.07;;;5.90;99.90;;;;;;5017223;28;20120;-86
2021/11/25 02:14:22;;;;;;;9.90;5.60;;;5.90;99.90;;;;;;5034546;28;20482;-87
2021/11/25 02:16:50;;;;;;;10.80;6.13;;;5.90;99.90;;;;;;5000539;28;20048;-86
2021/11/25 02:19:17;;;;;;;8.60;5.63;;;5.80;99.90;;;;;;5016444;28;20064;-86
2021/11/25 02:21:43;;;;;;;9.53;5.63;;;5.80;99.90;;;;;;5000430;28;20038;-86
2021/11/25 02:24:09;;;;;;;8.57;5.37;;;5.80;99.90;;;;;;5000459;28;20030;-86
2021/11/25 02:26:35;;;;;;;9.13;5.83;;;5.70;99.90;;;;;;5000419;28;20478;-87
2021/11/25 02:29:02;;;;;;;9.60;5.83;;;5.70;99.90;;;;;;5034123;28;20025;-87
2021/11/25 02:31:28;;;;;;;9.60;5.90;;;5.70;99.90;;;;;;5020881;28;20025;-87
2021/11/25 02:33:53;;;;;;;8.90;5.67;;;5.60;99.90;;;;;;5019040;28;20497;-87
2021/11/25 02:36:19;;;;;;;9.93;5.63;;;5.60;99.90;;;;;;5035073;28;20029;-87
2021/11/25 02:38:45;;;;;;;8.43;5.23;;;5.50;99.90;;;;;;4999729;28;20029;-86
2021/11/25 02:41:11;;;;;;;11.40;5.77;;;5.50;99.90;;;;;;5000143;28;20036;-87
2021/11/25 02:43:37;;;;;;;11.47;6.00;;;5.50;99.90;;;;;;5000009;28;20018;-86
2021/11/25 02:46:05;;;;;;;9.00;5.10;;;5.40;99.90;;;;;;5016661;28;20037;-87
2021/11/25 02:48:42;;;;;;;9.07;5.63;;;5.40;99.90;;;;;;5015880;28;20504;-87
2021/11/25 02:51:09;;;;;;;11.40;5.63;;;5.30;99.90;;;;;;5016726;28;20100;-87
2021/11/25 02:53:36;;;;;;;9.13;5.57;;;5.20;99.90;;;;;;5001154;28;20037;-87
2021/11/25 02:56:07;;;;;;;9.60;5.17;;;5.20;99.90;;;;;;5020452;28;20112;-86
2021/11/25 02:58:34;;;;;;;10.23;6.00;;;5.20;99.90;;;;;;5020359;28;20048;-87
2021/11/25 03:01:05;;;;;;;8.30;5.57;;;5.20;99.90;;;;;;5004255;28;20608;-87
2021/11/25 03:03:31;;;;;;;9.53;5.90;;;5.10;99.90;;;;;;5003686;28;20086;-87
2021/11/25 03:05:56;;;;;;;10.60;5.77;;;5.20;99.90;;;;;;5005638;28;20112;-87
2021/11/25 03:08:22;;;;;;;11.00;5.83;;;5.10;99.90;;;;;;5016376;28;20037;-87
2021/11/25 03:10:50;;;;;;;11.97;6.13;;;5.10;99.90;;;;;;5015688;28;20040;-87
2021/11/25 03:13:18;;;;;;;9.80;5.83;;;5.10;99.90;;;;;;5015907;28;20025;-87
2021/11/25 03:15:44;;;;;;;11.57;6.30;;;5.20;99.90;;;;;;4999471;28;20083;-87
2021/11/25 03:18:11;;;;;;;11.70;6.23;;;5.20;99.90;;;;;;4999052;28;20056;-87
2021/11/25 03:20:40;;;;;;;11.10;6.43;;;5.20;99.90;;;;;;5016590;28;20029;-86
2021/11/25 03:23:07;;;;;;;10.27;6.63;;;5.20;99.90;;;;;;5000103;28;20116;-87
2021/11/25 03:25:33;;;;;;;10.20;6.47;;;5.10;99.90;;;;;;5016511;28;20512;-87
2021/11/25 03:28:00;;;;;;;12.90;6.73;;;5.10;99.90;;;;;;5033729;28;20033;-87
2021/11/25 03:30:25;;;;;;;8.37;5.50;;;5.10;99.90;;;;;;4999731;28;20049;-87
2021/11/25 03:32:51;;;;;;;9.97;6.60;;;5.10;99.90;;;;;;4999727;28;20093;-87
2021/11/25 03:35:17;;;;;;;11.93;7.03;;;5.10;99.90;;;;;;4999569;28;20025;-87
2021/11/25 03:37:43;;;;;;;17.40;6.80;;;5.10;99.90;;;;;;4999557;28;20069;-87
2021/11/25 03:40:10;;;;;;;13.07;7.03;;;5.20;99.90;;;;;;5016082;28;20112;-87
2021/11/25 03:42:36;;;;;;;11.30;7.13;;;5.20;99.90;;;;;;4999474;28;20128;-86
2021/11/25 03:45:03;;;;;;;13.63;7.97;;;5.20;99.90;;;;;;5015811;28;20129;-87
2021/11/25 03:47:29;;;;;;;11.70;7.37;;;5.20;99.90;;;;;;5015918;28;20068;-87
2021/11/25 03:49:55;;;;;;;13.13;7.83;;;5.30;99.90;;;;;;5015614;28;20029;-87
2021/11/25 03:52:21;;;;;;;13.23;8.10;;;5.30;99.90;;;;;;4999399;28;20044;-87
2021/11/25 03:54:46;;;;;;;10.90;7.33;;;5.30;99.90;;;;;;4999462;28;20033;-87
2021/11/25 03:57:12;;;;;;;11.60;7.53;;;5.30;99.90;;;;;;5000077;28;20053;-86
2021/11/25 03:59:38;;;;;;;12.77;8.07;;;5.30;99.90;;;;;;5000060;28;20053;-87
2021/11/25 04:02:04;;;;;;;12.27;7.50;;;5.40;99.90;;;;;;5000301;28;20084;-85
2021/11/25 04:04:30;;;;;;;14.63;7.83;;;5.40;99.90;;;;;;5000402;28;20033;-85
2021/11/25 04:06:56;;;;;;;11.40;7.50;;;5.40;99.90;;;;;;5000758;28;20037;-85
2021/11/25 04:09:22;;;;;;;12.50;7.33;;;5.40;99.90;;;;;;5032974;28;20033;-85
2021/11/25 04:11:48;;;;;;;13.30;8.37;;;5.40;99.90;;;;;;5033295;28;20029;-85
2021/11/25 04:14:13;;;;;;;13.80;8.23;;;5.40;99.90;;;;;;5015458;28;20446;-85
2021/11/25 04:16:39;;;;;;;11.73;7.97;;;5.40;99.90;;;;;;4999100;28;20038;-86
2021/11/25 04:19:05;;;;;;;12.47;8.50;;;5.40;99.90;;;;;;5015665;28;20032;-86
2021/11/25 04:21:31;;;;;;;14.77;8.77;;;5.30;99.90;;;;;;5014884;28;20124;-85
2021/11/25 04:23:57;;;;;;;13.23;8.23;;;5.40;99.90;;;;;;5014818;28;20076;-85
2021/11/25 04:26:22;;;;;;;13.23;7.97;;;5.30;99.90;;;;;;4998459;28;20041;-85
2021/11/25 04:28:48;;;;;;;14.43;8.43;;;5.30;99.90;;;;;;5015040;28;20039;-85
2021/11/25 04:36:43;;;;;;;12.17;7.60;;;5.20;99.90;;;;;;5014854;28;20034;-85
2021/11/25 04:39:09;;;;;;;15.17;8.33;;;5.10;99.90;;;;;;5014780;28;20028;-85
2021/11/25 04:41:35;;;;;;;13.13;8.50;;;5.10;99.90;;;;;;4999078;28;20029;-85
2021/11/25 04:44:01;;;;;;;13.97;8.90;;;5.00;99.90;;;;;;4998839;28;20036;-85
2021/11/25 04:46:28;;;;;;;12.57;8.23;;;5.00;99.90;;;;;;4998543;28;20132;-85
2021/11/25 04:48:53;;;;;;;15.10;8.53;;;5.00;99.90;;;;;;4998636;28;20163;-85
2021/11/25 04:51:19;;;;;;;13.33;8.57;;;5.00;99.90;;;;;;4998651;28;20044;-85
2021/11/25 04:53:45;;;;;;;15.37;8.13;;;5.00;99.90;;;;;;4998375;28;20029;-85
2021/11/25 04:56:11;;;;;;;13.27;8.20;;;5.00;99.90;;;;;;5014820;28;20609;-85
2021/11/25 04:58:37;;;;;;;11.93;8.33;;;4.90;99.90;;;;;;4998777;28;20501;-85
2021/11/25 05:01:03;;;;;;;15.23;8.23;;;4.80;99.90;;;;;;5014946;28;20026;-86
2021/11/25 05:03:29;;;;;;;15.00;8.57;;;4.90;99.90;;;;;;4998794;28;20041;-85
2021/11/25 05:05:55;;;;;;;14.80;8.30;;;4.90;99.90;;;;;;4998848;28;20037;-85
2021/11/25 05:08:22;;;;;;;15.40;9.27;;;4.90;99.90;;;;;;4998949;28;20413;-85
2021/11/25 05:10:48;;;;;;;13.03;7.80;;;4.90;99.90;;;;;;5032630;28;20076;-85
2021/11/25 05:13:14;;;;;;;13.40;8.77;;;4.90;99.90;;;;;;4998456;28;20033;-85
2021/11/25 05:15:40;;;;;;;13.53;8.53;;;4.90;99.90;;;;;;4998961;28;20030;-85
2021/11/25 05:18:07;;;;;;;14.17;8.10;;;4.90;99.90;;;;;;5015349;28;20034;-85
2021/11/25 05:20:33;;;;;;;15.00;8.50;;;4.90;99.90;;;;;;5015283;28;20399;-84
2021/11/25 05:22:59;;;;;;;15.40;9.30;;;4.80;99.90;;;;;;4998519;28;20104;-85
2021/11/25 05:25:26;;;;;;;15.57;8.87;;;4.90;99.90;;;;;;4998495;28;20033;-85
2021/11/25 05:27:52;;;;;;;15.00;8.87;;;4.80;99.90;;;;;;4998846;28;20394;-87
2021/11/25 05:30:19;;;;;;;13.63;8.23;;;4.70;99.90;;;;;;4998195;28;20034;-85
2021/11/25 05:32:46;;;;;;;16.60;9.10;;;4.60;99.90;;;;;;4998303;28;20033;-85
2021/11/25 05:35:13;;;;;;;14.67;8.83;;;4.60;99.90;;;;;;5016740;28;20036;-85
2021/11/25 05:37:41;;;;;;;14.17;8.67;;;4.60;99.90;;;;;;5001519;28;20124;-85
2021/11/25 05:40:09;;;;;;;14.90;9.20;;;4.50;99.90;;;;;;5001757;28;20056;-86
2021/11/25 05:42:35;;;;;;;13.20;7.77;;;4.60;99.90;;;;;;5001956;28;20029;-86
2021/11/25 05:45:04;;;;;;;13.87;8.10;;;4.50;99.90;;;;;;5018211;28;20057;-85
2021/11/25 05:47:34;;;;;;;13.73;8.10;;;4.40;99.90;;;;;;5001871;28;20151;-87
2021/11/25 05:50:04;;;;;;;16.30;8.53;;;4.40;99.90;;;;;;5002625;28;20033;-86
2021/11/25 05:52:30;;;;;;;13.82;8.27;;;4.30;99.90;;;;;;5019344;28;20083;-85
2021/11/25 05:54:56;;;;;;;12.20;8.33;;;4.20;99.90;;;;;;5018983;28;20037;-86
2021/11/25 05:57:22;;;;;;;14.83;8.40;;;4.30;99.90;;;;;;5001388;28;20561;-85
2021/11/25 05:59:48;;;;;;;14.20;8.00;;;4.20;99.90;;;;;;5001545;28;20033;-85
2021/11/25 06:02:15;;;;;;;26.93;11.30;;;4.10;99.90;;;;;;5017687;28;20056;-85
2021/11/25 06:04:41;;;;;;;24.30;11.33;;;4.00;99.90;;;;;;5018057;28;20089;-85
2021/11/25 06:07:07;;;;;;;27.97;12.03;;;4.00;99.90;;;;;;5001241;28;20069;-86
2021/11/25 06:09:32;;;;;;;57.57;19.70;;;4.00;99.90;;;;;;5001988;28;20038;-86
2021/11/25 06:11:58;;;;;;;20.77;10.37;;;3.90;99.90;;;;;;5001925;28;20029;-86
2021/11/25 06:14:24;;;;;;;17.97;9.10;;;3.90;99.90;;;;;;5018194;28;20029;-86
2021/11/25 06:16:49;;;;;;;15.17;8.33;;;3.90;99.90;;;;;;5017659;28;20096;-86
2021/11/25 06:19:15;;;;;;;13.83;8.87;;;3.90;99.90;;;;;;5000990;28;20036;-87
2021/11/25 06:21:41;;;;;;;13.83;8.57;;;3.90;99.90;;;;;;5000942;28;20492;-87
2021/11/25 06:24:07;;;;;;;15.33;8.17;;;3.80;99.90;;;;;;5017336;28;20021;-87
2021/11/25 06:26:39;;;;;;;11.93;8.07;;;3.70;99.90;;;;;;5017557;28;20486;-86
2021/11/25 06:29:05;;;;;;;13.80;7.57;;;3.70;99.90;;;;;;5017456;28;20038;-87
2021/11/25 06:31:31;;;;;;;15.60;8.50;;;3.70;99.90;;;;;;5016727;28;20045;-86
2021/11/25 06:33:57;;;;;;;13.47;8.00;;;3.80;99.90;;;;;;5015335;23;20042;-87
2021/11/25 06:36:23;;;;;;;16.00;8.47;;;3.90;99.90;;;;;;5017238;28;20485;-87
2021/11/25 06:38:48;;;;;;;18.57;8.70;;;3.90;99.90;;;;;;5034539;28;20657;-87
2021/11/25 06:41:14;;;;;;;14.27;8.03;;;4.00;99.90;;;;;;5016913;28;20030;-87
2021/11/25 06:43:40;;;;;;;14.83;8.67;;;4.00;99.90;;;;;;5017345;28;20436;-87
2021/11/25 06:46:06;;;;;;;15.37;9.07;;;4.10;99.90;;;;;;5034125;28;20108;-88
2021/11/25 06:48:31;;;;;;;16.00;8.77;;;4.10;99.90;;;;;;5034383;28;20032;-87
2021/11/25 06:50:57;;;;;;;16.13;9.10;;;4.10;99.90;;;;;;5017178;28;20155;-87
2021/11/25 06:53:25;;;;;;;16.27;8.63;;;4.10;99.90;;;;;;5016947;28;20505;-87
2021/11/25 06:55:51;;;;;;;14.90;8.90;;;4.10;99.90;;;;;;5000308;28;20025;-87
2021/11/25 06:58:17;;;;;;;16.87;10.10;;;4.10;99.90;;;;;;5034261;28;20120;-87
2021/11/25 07:00:43;;;;;;;19.63;11.43;;;4.10;99.90;;;;;;5017056;28;20061;-88
2021/11/25 07:03:09;;;;;;;22.80;11.70;;;4.20;99.90;;;;;;5016893;28;20056;-87
2021/11/25 07:05:35;;;;;;;24.27;11.63;;;4.20;99.90;;;;;;5001059;28;20156;-86
2021/11/25 07:08:01;;;;;;;41.07;19.17;;;4.20;99.90;;;;;;5000396;28;20397;-86
2021/11/25 07:10:28;;;;;;;47.97;22.17;;;4.20;99.90;;;;;;5034697;28;20032;-86
2021/11/25 07:12:53;;;;;;;41.87;20.33;;;4.20;99.90;;;;;;5017022;28;20034;-86
2021/11/25 07:15:21;;;;;;;37.50;18.37;;;4.20;99.90;;;;;;5000530;28;20030;-86
2021/11/25 07:17:47;;;;;;;48.50;20.77;;;4.30;99.90;;;;;;5016589;28;20024;-86
2021/11/25 07:20:14;;;;;;;36.00;18.03;;;4.30;99.90;;;;;;5000259;28;20025;-87
2021/11/25 07:22:40;;;;;;;31.13;15.77;;;4.30;99.90;;;;;;5016909;28;20045;-86
2021/11/25 07:25:10;;;;;;;27.97;15.70;;;4.30;99.90;;;;;;5000722;28;20029;-86
2021/11/25 07:27:37;;;;;;;23.63;13.83;;;4.20;99.90;;;;;;5000404;28;20037;-87
2021/11/25 07:30:05;;;;;;;24.57;13.70;;;4.20;99.90;;;;;;5000302;28;20193;-86
2021/11/25 07:32:30;;;;;;;22.23;14.00;;;4.20;99.90;;;;;;5034955;28;20033;-85
2021/11/25 07:34:56;;;;;;;23.53;13.53;;;4.20;99.90;;;;;;5016431;28;20078;-86
2021/11/25 07:37:22;;;;;;;23.40;13.20;;;4.30;99.90;;;;;;5000160;28;20064;-86
2021/11/25 07:39:48;;;;;;;31.27;15.53;;;4.40;99.90;;;;;;5016479;28;20029;-86
2021/11/25 07:42:13;;;;;;;32.23;16.67;;;4.40;99.90;;;;;;5000495;28;20029;-86
2021/11/25 07:44:39;;;;;;;32.40;16.03;;;4.40;99.90;;;;;;5000755;28;20037;-86
2021/11/25 07:47:05;;;;;;;34.40;16.37;;;4.40;99.90;;;;;;5000065;28;20398;-86
2021/11/25 07:49:31;;;;;;;37.27;17.13;;;4.50;99.90;;;;;;5033790;28;20034;-87
2021/11/25 07:52:00;;;;;;;34.40;16.77;;;4.40;99.90;;;;;;5000098;28;20544;-86
2021/11/25 07:54:27;;;;;;;35.90;16.92;;;4.40;99.90;;;;;;5000268;28;20098;-86
2021/11/25 07:56:57;;;;;;;26.23;15.20;;;4.40;99.90;;;;;;5016365;28;20057;-86
2021/11/25 07:59:26;;;;;;;24.80;15.02;;;4.40;99.90;;;;;;5016189;28;20478;-86
2021/11/25 08:01:52;;;;;;;24.57;14.83;;;4.40;99.90;;;;;;5017002;28;20033;-86
2021/11/25 08:04:18;;;;;;;22.80;14.13;;;4.40;99.90;;;;;;5000759;28;20036;-86
2021/11/25 08:06:46;;;;;;;23.77;14.30;;;4.40;99.90;;;;;;5001125;28;20053;-86
2021/11/25 08:09:11;;;;;;;22.33;14.07;;;4.40;99.90;;;;;;4999945;28;20040;-85
2021/11/25 08:11:37;;;;;;;22.57;14.73;;;4.50;99.90;;;;;;5015970;28;20036;-86
2021/11/25 08:14:04;;;;;;;24.43;14.60;;;4.50;99.90;;;;;;5015721;28;20040;-85
2021/11/25 08:16:30;;;;;;;25.87;14.37;;;4.50;99.90;;;;;;4999149;28;20033;-86
2021/11/25 08:18:56;;;;;;;26.57;13.67;;;4.50;99.90;;;;;;5033173;28;20477;-85
2021/11/25 08:21:22;;;;;;;28.30;14.50;;;4.60;99.90;;;;;;5015901;28;20429;-87
2021/11/25 08:23:49;;;;;;;24.57;14.63;;;4.60;99.90;;;;;;4999373;28;20112;-87
2021/11/25 08:26:14;;;;;;;25.20;14.80;;;4.60;99.90;;;;;;4999181;28;20512;-86
2021/11/25 08:28:41;;;;;;;29.13;15.47;;;4.60;99.90;;;;;;5015167;28;20176;-86
2021/11/25 08:31:08;;;;;;;25.03;15.67;;;4.50;99.90;;;;;;5015392;28;20057;-86
2021/11/25 08:33:34;;;;;;;31.77;19.03;;;4.60;99.90;;;;;;4999235;28;20033;-86
2021/11/25 08:36:00;;;;;;;25.67;16.20;;;4.50;99.90;;;;;;4999421;28;20041;-86
2021/11/25 08:38:28;;;;;;;23.27;15.63;;;4.60;99.90;;;;;;4998699;28;20076;-86
2021/11/25 08:40:55;;;;;;;23.90;15.40;;;4.50;99.90;;;;;;5015789;28;20022;-86
2021/11/25 08:43:21;;;;;;;24.77;15.83;;;4.50;99.90;;;;;;4998877;28;20083;-86
2021/11/25 08:45:48;;;;;;;28.67;18.37;;;4.50;99.90;;;;;;4999101;28;20482;-86
2021/11/25 08:48:14;;;;;;;27.10;17.07;;;4.50;99.90;;;;;;4998632;28;20474;-86
2021/11/25 08:50:41;;;;;;;27.80;17.67;;;4.60;99.90;;;;;;4998908;28;20508;-86
2021/11/25 08:53:07;;;;;;;29.07;18.43;;;4.60;99.90;;;;;;4999738;28;20476;-86
2021/11/25 08:55:35;;;;;;;26.17;17.37;;;4.60;99.90;;;;;;4998793;28;20025;-86
2021/11/25 08:58:05;;;;;;;31.00;18.40;;;4.60;99.90;;;;;;4998673;28;20560;-86
2021/11/25 09:00:33;;;;;;;30.70;19.10;;;4.60;99.90;;;;;;5015253;28;20037;-86
2021/11/25 09:03:03;;;;;;;27.58;16.30;;;4.60;99.90;;;;;;5015247;28;20032;-86
2021/11/25 09:05:30;;;;;;;27.63;16.57;;;4.70;99.90;;;;;;5015851;28;20128;-87
2021/11/25 09:07:57;;;;;;;27.27;17.23;;;4.70;99.90;;;;;;5014901;28;20055;-86
2021/11/25 09:10:23;;;;;;;27.47;17.13;;;4.70;99.90;;;;;;5002530;28;20025;-86
2021/11/25 09:12:49;;;;;;;27.60;16.40;;;4.80;99.90;;;;;;5002861;28;20064;-86
2021/11/25 09:15:16;;;;;;;27.53;16.50;;;4.80;99.90;;;;;;5002486;28;20025;-86
2021/11/25 09:17:42;;;;;;;25.73;15.67;;;4.80;99.90;;;;;;5036096;28;20085;-86
2021/11/25 09:20:09;;;;;;;26.13;15.40;;;4.90;99.90;;;;;;5018548;28;20120;-86
2021/11/25 09:22:36;;;;;;;27.77;17.10;;;4.90;99.90;;;;;;5036414;28;20093;-86
2021/11/25 09:25:03;;;;;;;29.90;16.37;;;4.90;99.90;;;;;;5002595;28;20029;-86
2021/11/25 09:27:31;;;;;;;29.33;16.48;;;5.00;99.90;;;;;;5018729;28;20040;-86
2021/11/25 09:29:56;;;;;;;25.20;16.80;;;5.00;99.90;;;;;;5018705;28;20112;-86
2021/11/25 09:32:24;;;;;;;29.63;17.63;;;5.10;99.90;;;;;;5019994;28;20029;-87
2021/11/25 09:34:52;;;;;;;30.43;17.90;;;5.10;99.90;;;;;;5003825;28;20458;-86
2021/11/25 09:37:18;;;;;;;31.93;17.53;;;5.10;99.90;;;;;;5019993;28;20544;-87
2021/11/25 09:39:44;;;;;;;32.17;17.63;;;5.10;99.90;;;;;;5037008;28;20022;-86
2021/11/25 09:42:10;;;;;;;29.37;17.83;;;5.10;99.90;;;;;;5020059;28;20466;-86
2021/11/25 09:44:37;;;;;;;30.07;18.83;;;5.10;99.90;;;;;;5003476;28;20479;-86
2021/11/25 09:47:04;;;;;;;31.07;17.90;;;5.10;99.90;;;;;;5003862;28;20033;-87
2021/11/25 09:49:30;;;;;;;32.07;17.43;;;5.10;99.90;;;;;;5036838;28;20048;-86
2021/11/25 09:51:57;;;;;;;28.53;17.70;;;5.10;99.90;;;;;;5003800;28;20025;-86
2021/11/25 09:54:24;;;;;;;28.30;18.43;;;5.00;99.90;;;;;;5003502;28;20034;-87
2021/11/25 09:56:51;;;;;;;30.13;17.67;;;5.00;99.90;;;;;;5020120;28;20044;-86
2021/11/25 09:59:17;;;;;;;26.60;17.40;;;5.10;99.90;;;;;;5003020;28;20171;-87
2021/11/25 10:01:44;;;;;;;27.43;17.47;;;5.10;99.90;;;;;;5037356;28;20030;-86
2021/11/25 10:04:10;;;;;;;32.00;18.43;;;5.10;99.90;;;;;;5019768;28;20025;-86
2021/11/25 10:06:55;;;;;;;30.77;17.07;;;5.00;99.90;;;;;;5019943;28;20037;-87
2021/11/25 10:09:40;;;;;;;29.03;16.70;;;5.10;99.90;;;;;;5037188;28;20033;-87
2021/11/25 10:12:33;;;;;;;27.63;18.00;;;5.20;99.90;;;;;;5018617;28;20134;-86
2021/11/25 10:15:01;;;;;;;27.33;17.00;;;5.20;99.90;;;;;;5002417;28;20398;-86
2021/11/25 10:17:47;;;;;;;29.33;17.77;;;5.30;99.90;;;;;;5003163;28;20044;-86
2021/11/25 10:20:16;;;;;;;28.27;17.37;;;5.30;99.90;;;;;;5001850;28;20060;-86
2021/11/25 10:23:02;;;;;;;30.58;18.67;;;5.30;99.90;;;;;;5018271;28;20345;-86
2021/11/25 10:25:46;;;;;;;30.00;18.70;;;5.40;99.90;;;;;;5001867;28;20037;-86
2021/11/25 10:28:20;;;;;;;27.67;17.83;;;5.40;99.90;;;;;;5000908;28;20488;-86
2021/11/25 10:30:50;;;;;;;30.50;18.97;;;5.40;99.90;;;;;;5035677;28;20030;-85
2021/11/25 10:33:25;;;;;;;30.77;18.88;;;5.50;99.90;;;;;;5001315;28;20030;-86
2021/11/25 10:36:16;;;;;;;29.53;19.40;;;5.50;99.90;;;;;;5001249;28;20041;-86
2021/11/25 10:41:25;;;;;;;32.67;20.87;;;5.60;99.90;;;;;;5035497;28;20026;-87
2021/11/25 10:44:13;;;;;;;34.70;20.47;;;5.60;99.90;;;;;;5035651;28;20087;-86
2021/11/25 10:46:55;;;;;;;35.88;21.73;;;5.60;99.90;;;;;;5017644;28;20037;-86
2021/11/25 10:49:38;;;;;;;33.33;21.70;;;5.60;99.90;;;;;;5000771;28;20041;-86
2021/11/25 10:52:28;;;;;;;33.53;20.57;;;5.70;99.90;;;;;;5017619;28;20379;-86
2021/11/25 10:54:57;;;;;;;35.30;21.87;;;5.70;99.90;;;;;;5035365;28;20021;-86
2021/11/25 10:57:34;;;;;;;36.87;21.00;;;5.70;99.90;;;;;;5017852;28;20490;-86
2021/11/25 11:00:19;;;;;;;33.27;21.07;;;5.80;99.90;;;;;;5018605;28;20029;-86
2021/11/25 11:02:45;;;;;;;35.10;21.43;;;5.80;99.90;;;;;;5018075;28;20030;-86
2021/11/25 11:05:20;;;;;;;38.63;25.13;;;5.80;99.90;;;;;;5002115;28;20552;-85
2021/11/25 11:07:48;;;;;;;32.27;20.80;;;5.90;99.90;;;;;;5018229;28;20041;-86
2021/11/25 11:10:22;;;;;;;32.83;20.03;;;5.90;99.90;;;;;;5036344;28;20112;-86
2021/11/25 11:13:37;;;;;;;31.90;20.67;;;5.90;99.90;;;;;;5036871;28;20091;-86
2021/11/25 11:18:53;;;;;;;30.67;19.73;;;6.00;99.90;;;;;;5017608;28;20022;-85
2021/11/25 11:21:40;;;;;;;30.93;20.43;;;6.00;99.90;;;;;;5002751;28;20124;-85
2021/11/25 11:24:27;;;;;;;30.07;20.60;;;6.00;99.90;;;;;;5001888;28;20029;-86
2021/11/25 11:26:55;;;;;;;34.60;19.37;;;6.00;99.90;;;;;;5018434;28;20121;-86
2021/11/25 11:29:25;;;;;;;34.47;20.55;;;6.00;99.90;;;;;;5017464;28;20040;-86
2021/11/25 11:31:53;;;;;;;33.13;20.43;;;6.10;99.90;;;;;;5017662;28;20053;-86
2021/11/25 11:34:19;;;;;;;31.73;20.20;;;6.00;99.90;;;;;;5018948;28;20124;-86
2021/11/25 11:36:48;;;;;;;32.83;20.97;;;6.10;99.90;;;;;;5035869;28;20040;-85
2021/11/25 11:39:17;;;;;;;31.92;20.00;;;6.00;99.90;;;;;;5000553;28;20041;-86
2021/11/25 11:41:48;;;;;;;30.30;19.23;;;6.10;99.90;;;;;;5000754;28;20030;-86
2021/11/25 11:44:19;;;;;;;31.90;20.13;;;6.10;99.90;;;;;;5001115;28;20029;-86
2021/11/25 11:46:48;;;;;;;32.00;19.87;;;6.10;99.90;;;;;;5000866;28;20044;-86
2021/11/25 11:49:15;;;;;;;31.93;19.80;;;6.10;99.90;;;;;;5016427;28;20120;-86
2021/11/25 11:51:41;;;;;;;33.30;19.40;;;6.10;99.90;;;;;;5016955;28;20033;-86
2021/11/25 11:54:24;;;;;;;33.70;20.87;;;6.00;99.90;;;;;;5016263;28;20367;-87
2021/11/25 11:56:50;;;;;;;37.17;21.33;;;6.00;99.90;;;;;;5016391;28;20406;-86
2021/11/25 11:59:16;;;;;;;39.73;22.20;;;6.00;99.90;;;;;;4999445;28;20028;-86
2021/11/25 12:01:50;;;;;;;49.13;24.33;;;5.90;99.90;;;;;;5034922;28;20486;-86
2021/11/25 12:04:16;;;;;;;42.90;23.50;;;6.00;99.90;;;;;;5016163;28;20029;-86
2021/11/25 12:06:45;;;;;;;43.73;26.13;;;5.90;99.90;;;;;;5016293;28;20500;-86
2021/11/25 12:09:11;;;;;;;40.30;24.97;;;5.90;99.90;;;;;;4999186;28;20033;-86
2021/11/25 12:11:49;;;;;;;38.77;24.30;;;5.90;99.90;;;;;;5016556;28;20033;-86
2021/11/25 12:14:25;;;;;;;41.50;24.17;;;5.90;99.90;;;;;;5034232;28;20029;-85
2021/11/25 12:16:54;;;;;;;41.00;25.03;;;6.00;99.90;;;;;;5015800;28;20036;-86
2021/11/25 12:19:29;;;;;;;39.47;23.80;;;6.00;99.90;;;;;;5015824;28;20029;-86
2021/11/25 12:21:58;;;;;;;40.70;24.47;;;6.00;99.90;;;;;;5016070;28;20039;-86
2021/11/25 12:24:46;;;;;;;41.75;25.38;;;6.00;99.90;;;;;;5033837;28;20025;-85
2021/11/25 12:30:06;;;;;;;41.93;25.20;;;5.90;99.90;;;;;;5016771;28;20040;-86
2021/11/25 12:32:36;;;;;;;46.77;27.07;;;5.90;99.90;;;;;;5033481;28;20036;-86
2021/11/25 12:35:28;;;;;;;44.37;27.30;;;5.90;99.90;;;;;;5039041;22;20425;-88
2021/11/25 12:38:09;;;;;;;48.20;27.43;;;5.90;99.90;;;;;;4982517;28;20045;-88
2021/11/25 12:41:11;;;;;;;47.23;27.03;;;5.80;99.90;;;;;;5027451;28;20075;-88
2021/11/25 12:43:41;;;;;;;47.17;27.05;;;5.80;99.90;;;;;;5013870;28;20037;-88
2021/11/25 12:46:21;;;;;;;48.73;27.50;;;5.80;99.90;;;;;;4998237;28;20034;-88
2021/11/25 12:48:54;;;;;;;41.65;27.17;;;5.80;99.90;;;;;;4996093;28;20268;-89
2021/11/25 12:51:26;;;;;;;44.83;27.57;;;5.80;99.90;;;;;;4998002;28;20037;-88
2021/11/25 12:53:59;;;;;;;44.87;28.30;;;5.80;99.90;;;;;;5012620;28;20038;-88
2021/11/25 12:56:31;;;;;;;46.57;28.30;;;5.70;99.90;;;;;;4998084;28;20041;-88
2021/11/25 12:59:07;;;;;;;51.90;29.90;;;5.70;99.90;;;;;;4997734;28;20029;-88
2021/11/25 13:01:45;;;;;;;47.87;29.37;;;5.70;99.90;;;;;;4997726;28;20029;-88
2021/11/25 13:09:35;;;;;;;47.07;28.83;;;5.70;99.90;;;;;;5050027;28;20044;-88
2021/11/25 13:12:04;;;;;;;47.27;29.17;;;5.70;99.90;;;;;;5034159;28;20028;-87